Time,TemperatureF,DewpointF,PressureIn,WindDirection,WindDirectionDegrees,WindSpeedMPH,WindSpeedGustMPH,Humidity,HourlyPrecipIn,Conditions,Clouds,dailyrainin,SoftwareType,DateUTC
2013-02-27 00:00:00,31.1,25.9,-100.00,North,-999,-999.0,-999.0,81,-99.99,,,-99.99,,2013-02-27 05:00:00,
2013-02-27 00:10:00,-1.0,0.0,-100.00,North,-999,-999.0,-999.0,0,-99.99,,,-99.99,,2013-02-27 05:10:00,
2013-02-27 00:20:00,31.1,26.2,-100.00,North,-999,-999.0,-999.0,82,-99.99,,,-99.99,,2013-02-27 05:20:00,
2013-02-27 00:30:00,31.0,26.4,-100.00,North,-999,-999.0,-999.0,83,-99.99,,,-99.99,,2013-02-27 05:30:00,
2013-02-27 00:40:00,31.0,26.8,-100.00,North,-999,-999.0,-999.0,84,-99.99,,,-99.99,,2013-02-27 05:40:00,
2013-02-27 00:50:00,30.8,26.8,-100.00,North,-999,-999.0,-999.0,85,-99.99,,,-99.99,,2013-02-27 05:50:00,
2013-02-27 01:00:00,30.8,26.8,-100.00,North,-999,-999.0,-999.0,85,-99.99,,,-99.99,,2013-02-27 06:00:00,
2013-02-27 01:10:00,30.8,27.1,-100.00,North,-999,-999.0,-999.0,86,-99.99,,,-99.99,,2013-02-27 06:10:00,
2013-02-27 01:20:00,31.0,27.7,-100.00,North,-999,-999.0,-999.0,87,-99.99,,,-99.99,,2013-02-27 06:20:00,
2013-02-27 01:30:00,31.1,27.7,-100.00,North,-999,-999.0,-999.0,87,-99.99,,,-99.99,,2013-02-27 06:30:00,
2013-02-27 01:40:00,31.3,27.9,-100.00,North,-999,-999.0,-999.0,87,-99.99,,,-99.99,,2013-02-27 06:40:00,
2013-02-27 01:50:00,31.5,28.4,-100.00,North,-999,-999.0,-999.0,88,-99.99,,,-99.99,,2013-02-27 06:50:00,
2013-02-27 02:00:00,31.7,28.6,-100.00,North,-999,-999.0,-999.0,88,-99.99,,,-99.99,,2013-02-27 07:00:00,
2013-02-27 02:10:00,31.7,28.8,-100.00,North,-999,-999.0,-999.0,89,-99.99,,,-99.99,,2013-02-27 07:10:00,
2013-02-27 02:20:00,31.9,29.1,-100.00,North,-999,-999.0,-999.0,89,-99.99,,,-99.99,,2013-02-27 07:20:00,
2013-02-27 02:30:00,31.9,29.1,-100.00,North,-999,-999.0,-999.0,89,-99.99,,,-99.99,,2013-02-27 07:30:00,
2013-02-27 02:40:00,32.0,29.1,-100.00,North,-999,-999.0,-999.0,89,-99.99,,,-99.99,,2013-02-27 07:40:00,
2013-02-27 02:50:00,32.0,29.1,-100.00,North,-999,-999.0,-999.0,89,-99.99,,,-99.99,,2013-02-27 07:50:00,
2013-02-27 03:00:00,31.9,29.1,-100.00,North,-999,-999.0,-999.0,89,-99.99,,,-99.99,,2013-02-27 08:00:00,
2013-02-27 03:10:00,31.9,29.1,-100.00,North,-999,-999.0,-999.0,89,-99.99,,,-99.99,,2013-02-27 08:10:00,
2013-02-27 03:20:00,31.9,29.1,-100.00,North,-999,-999.0,-999.0,89,-99.99,,,-99.99,,2013-02-27 08:20:00,
2013-02-27 03:30:00,31.9,29.1,-100.00,North,-999,-999.0,-999.0,89,-99.99,,,-99.99,,2013-02-27 08:30:00,
2013-02-27 03:40:00,31.7,28.8,-100.00,North,-999,-999.0,-999.0,89,-99.99,,,-99.99,,2013-02-27 08:40:00,
2013-02-27 03:50:00,31.9,29.1,-100.00,North,-999,-999.0,-999.0,89,-99.99,,,-99.99,,2013-02-27 08:50:00,
2013-02-27 04:00:00,31.9,29.1,-100.00,North,-999,-999.0,-999.0,89,-99.99,,,-99.99,,2013-02-27 09:00:00,
2013-02-27 04:10:00,31.9,29.1,-100.00,North,-999,-999.0,-999.0,89,-99.99,,,-99.99,,2013-02-27 09:10:00,
2013-02-27 04:20:00,32.0,29.5,-100.00,North,-999,-999.0,-999.0,90,-99.99,,,-99.99,,2013-02-27 09:20:00,
2013-02-27 04:30:00,32.0,29.5,-100.00,North,-999,-999.0,-999.0,90,-99.99,,,-99.99,,2013-02-27 09:30:00,
2013-02-27 04:40:00,32.0,29.5,-100.00,North,-999,-999.0,-999.0,90,-99.99,,,-99.99,,2013-02-27 09:40:00,
2013-02-27 04:50:00,32.0,29.5,-100.00,North,-999,-999.0,-999.0,90,-99.99,,,-99.99,,2013-02-27 09:50:00,
2013-02-27 05:00:00,32.0,29.5,-100.00,North,-999,-999.0,-999.0,90,-99.99,,,-99.99,,2013-02-27 10:00:00,
2013-02-27 05:10:00,32.0,29.5,-100.00,North,-999,-999.0,-999.0,90,-99.99,,,-99.99,,2013-02-27 10:10:00,
2013-02-27 05:20:00,32.0,29.7,-100.00,North,-999,-999.0,-999.0,91,-99.99,,,-99.99,,2013-02-27 10:20:00,
2013-02-27 05:30:00,32.2,29.7,-100.00,North,-999,-999.0,-999.0,90,-99.99,,,-99.99,,2013-02-27 10:30:00,
2013-02-27 05:40:00,32.0,29.7,-100.00,North,-999,-999.0,-999.0,91,-99.99,,,-99.99,,2013-02-27 10:40:00,
2013-02-27 05:50:00,32.0,29.7,-100.00,North,-999,-999.0,-999.0,91,-99.99,,,-99.99,,2013-02-27 10:50:00,
2013-02-27 06:00:00,32.0,29.7,-100.00,North,-999,-999.0,-999.0,91,-99.99,,,-99.99,,2013-02-27 11:00:00,
2013-02-27 06:10:00,-1.0,0.0,-100.00,North,-999,-999.0,-999.0,0,-99.99,,,-99.99,,2013-02-27 11:10:00,
2013-02-27 06:20:00,32.2,29.8,-100.00,North,-999,-999.0,-999.0,91,-99.99,,,-99.99,,2013-02-27 11:20:00,
2013-02-27 06:30:00,32.2,29.8,-100.00,North,-999,-999.0,-999.0,91,-99.99,,,-99.99,,2013-02-27 11:30:00,
2013-02-27 06:40:00,32.6,30.2,-100.00,North,-999,-999.0,-999.0,91,-99.99,,,-99.99,,2013-02-27 11:40:00,
2013-02-27 06:50:00,32.9,30.6,-100.00,North,-999,-999.0,-999.0,91,-99.99,,,-99.99,,2013-02-27 11:50:00,
2013-02-27 07:00:00,33.1,30.7,-100.00,North,-999,-999.0,-999.0,91,-99.99,,,-99.99,,2013-02-27 12:00:00,
2013-02-27 07:10:00,33.5,31.5,-100.00,North,-999,-999.0,-999.0,92,-99.99,,,-99.99,,2013-02-27 12:10:00,
2013-02-27 07:20:00,33.8,31.6,-100.00,North,-999,-999.0,-999.0,92,-99.99,,,-99.99,,2013-02-27 12:20:00,
2013-02-27 07:30:00,34.2,32.2,-100.00,North,-999,-999.0,-999.0,92,-99.99,,,-99.99,,2013-02-27 12:30:00,
2013-02-27 07:40:00,34.6,32.5,-100.00,North,-999,-999.0,-999.0,92,-99.99,,,-99.99,,2013-02-27 12:40:00,
2013-02-27 07:50:00,35.3,33.3,-100.00,North,-999,-999.0,-999.0,92,-99.99,,,-99.99,,2013-02-27 12:50:00,
2013-02-27 08:00:00,36.2,34.2,-100.00,North,-999,-999.0,-999.0,92,-99.99,,,-99.99,,2013-02-27 13:00:00,
2013-02-27 08:10:00,36.9,34.9,-100.00,North,-999,-999.0,-999.0,92,-99.99,,,-99.99,,2013-02-27 13:10:00,
2013-02-27 08:20:00,36.9,34.9,-100.00,North,-999,-999.0,-999.0,92,-99.99,,,-99.99,,2013-02-27 13:20:00,
2013-02-27 08:30:00,37.8,35.6,-100.00,North,-999,-999.0,-999.0,92,-99.99,,,-99.99,,2013-02-27 13:30:00,
2013-02-27 08:40:00,37.8,35.6,-100.00,North,-999,-999.0,-999.0,92,-99.99,,,-99.99,,2013-02-27 13:40:00,
2013-02-27 08:50:00,38.5,36.3,-100.00,North,-999,-999.0,-999.0,92,-99.99,,,-99.99,,2013-02-27 13:50:00,
2013-02-27 09:00:00,39.1,37.0,-100.00,North,-999,-999.0,-999.0,92,-99.99,,,-99.99,,2013-02-27 14:00:00,
2013-02-27 09:10:00,39.1,37.0,-100.00,North,-999,-999.0,-999.0,92,-99.99,,,-99.99,,2013-02-27 14:10:00,
2013-02-27 09:20:00,39.4,37.2,-100.00,North,-999,-999.0,-999.0,92,-99.99,,,-99.99,,2013-02-27 14:20:00,
2013-02-27 09:30:00,39.8,37.6,-100.00,North,-999,-999.0,-999.0,92,-99.99,,,-99.99,,2013-02-27 14:30:00,
2013-02-27 09:40:00,39.8,37.4,-100.00,North,-999,-999.0,-999.0,91,-99.99,,,-99.99,,2013-02-27 14:40:00,
2013-02-27 09:50:00,40.3,37.9,-100.00,North,-999,-999.0,-999.0,91,-99.99,,,-99.99,,2013-02-27 14:50:00,
2013-02-27 10:00:00,40.0,37.6,-100.00,North,-999,-999.0,-999.0,91,-99.99,,,-99.99,,2013-02-27 15:00:00,
2013-02-27 10:10:00,39.6,37.4,-100.00,North,-999,-999.0,-999.0,92,-99.99,,,-99.99,,2013-02-27 15:10:00,
2013-02-27 10:20:00,40.3,38.1,-100.00,North,-999,-999.0,-999.0,92,-99.99,,,-99.99,,2013-02-27 15:20:00,
2013-02-27 10:30:00,40.3,37.9,-100.00,North,-999,-999.0,-999.0,91,-99.99,,,-99.99,,2013-02-27 15:30:00,
2013-02-27 10:40:00,40.3,37.9,-100.00,North,-999,-999.0,-999.0,91,-99.99,,,-99.99,,2013-02-27 15:40:00,
2013-02-27 10:50:00,40.7,38.3,-100.00,North,-999,-999.0,-999.0,91,-99.99,,,-99.99,,2013-02-27 15:50:00,
2013-02-27 11:00:00,40.5,38.1,-100.00,North,-999,-999.0,-999.0,91,-99.99,,,-99.99,,2013-02-27 16:00:00,
2013-02-27 11:10:00,40.5,38.1,-100.00,North,-999,-999.0,-999.0,91,-99.99,,,-99.99,,2013-02-27 16:10:00,
2013-02-27 11:20:00,40.7,38.3,-100.00,North,-999,-999.0,-999.0,91,-99.99,,,-99.99,,2013-02-27 16:20:00,
2013-02-27 11:30:00,40.7,38.3,-100.00,North,-999,-999.0,-999.0,91,-99.99,,,-99.99,,2013-02-27 16:30:00,
2013-02-27 11:40:00,40.7,38.3,-100.00,North,-999,-999.0,-999.0,91,-99.99,,,-99.99,,2013-02-27 16:40:00,
2013-02-27 11:50:00,40.7,38.3,-100.00,North,-999,-999.0,-999.0,91,-99.99,,,-99.99,,2013-02-27 16:50:00,
2013-02-27 12:00:00,40.9,38.5,-100.00,North,-999,-999.0,-999.0,91,-99.99,,,-99.99,,2013-02-27 17:00:00,
2013-02-27 12:10:00,41.0,38.3,-100.00,North,-999,-999.0,-999.0,90,-99.99,,,-99.99,,2013-02-27 17:10:00,
2013-02-27 12:20:00,-1.0,0.0,-100.00,North,-999,-999.0,-999.0,0,-99.99,,,-99.99,,2013-02-27 17:20:00,
2013-02-27 12:30:00,40.1,37.4,-100.00,North,-999,-999.0,-999.0,90,-99.99,,,-99.99,,2013-02-27 17:30:00,
2013-02-27 12:40:00,-1.0,0.0,-100.00,North,-999,-999.0,-999.0,0,-99.99,,,-99.99,,2013-02-27 17:40:00,
2013-02-27 12:50:00,39.6,36.9,-100.00,North,-999,-999.0,-999.0,90,-99.99,,,-99.99,,2013-02-27 17:50:00,
2013-02-27 13:00:00,39.4,36.7,-100.00,North,-999,-999.0,-999.0,90,-99.99,,,-99.99,,2013-02-27 18:00:00,
2013-02-27 13:10:00,39.1,36.7,-100.00,North,-999,-999.0,-999.0,91,-99.99,,,-99.99,,2013-02-27 18:10:00,
2013-02-27 13:20:00,39.2,36.9,-100.00,North,-999,-999.0,-999.0,91,-99.99,,,-99.99,,2013-02-27 18:20:00,
2013-02-27 13:30:00,40.1,37.8,-100.00,North,-999,-999.0,-999.0,91,-99.99,,,-99.99,,2013-02-27 18:30:00,
2013-02-27 13:40:00,40.0,37.2,-100.00,North,-999,-999.0,-999.0,90,-99.99,,,-99.99,,2013-02-27 18:40:00,
2013-02-27 13:50:00,39.6,36.9,-100.00,North,-999,-999.0,-999.0,90,-99.99,,,-99.99,,2013-02-27 18:50:00,
2013-02-27 14:00:00,39.8,37.0,-100.00,North,-999,-999.0,-999.0,90,-99.99,,,-99.99,,2013-02-27 19:00:00,
2013-02-27 14:10:00,39.8,37.0,-100.00,North,-999,-999.0,-999.0,90,-99.99,,,-99.99,,2013-02-27 19:10:00,
2013-02-27 14:20:00,39.4,36.7,-100.00,North,-999,-999.0,-999.0,90,-99.99,,,-99.99,,2013-02-27 19:20:00,
2013-02-27 14:30:00,38.9,36.1,-100.00,North,-999,-999.0,-999.0,90,-99.99,,,-99.99,,2013-02-27 19:30:00,
2013-02-27 14:40:00,38.7,36.0,-100.00,North,-999,-999.0,-999.0,90,-99.99,,,-99.99,,2013-02-27 19:40:00,
2013-02-27 14:50:00,38.3,35.6,-100.00,North,-999,-999.0,-999.0,90,-99.99,,,-99.99,,2013-02-27 19:50:00,
2013-02-27 15:00:00,38.5,35.8,-100.00,North,-999,-999.0,-999.0,90,-99.99,,,-99.99,,2013-02-27 20:00:00,
2013-02-27 15:10:00,38.3,36.0,-100.00,North,-999,-999.0,-999.0,91,-99.99,,,-99.99,,2013-02-27 20:10:00,
2013-02-27 15:20:00,38.2,35.8,-100.00,North,-999,-999.0,-999.0,91,-99.99,,,-99.99,,2013-02-27 20:20:00,
2013-02-27 15:30:00,37.8,35.4,-100.00,North,-999,-999.0,-999.0,91,-99.99,,,-99.99,,2013-02-27 20:30:00,
2013-02-27 15:40:00,37.4,35.1,-100.00,North,-999,-999.0,-999.0,91,-99.99,,,-99.99,,2013-02-27 20:40:00,
2013-02-27 15:50:00,37.4,35.1,-100.00,North,-999,-999.0,-999.0,91,-99.99,,,-99.99,,2013-02-27 20:50:00,
2013-02-27 16:00:00,37.4,35.1,-100.00,North,-999,-999.0,-999.0,91,-99.99,,,-99.99,,2013-02-27 21:00:00,
2013-02-27 16:10:00,-1.0,0.0,-100.00,North,-999,-999.0,-999.0,0,-99.99,,,-99.99,,2013-02-27 21:10:00,
2013-02-27 16:20:00,-1.0,0.0,-100.00,North,-999,-999.0,-999.0,0,-99.99,,,-99.99,,2013-02-27 21:20:00,
2013-02-27 16:30:00,37.1,34.7,-100.00,North,-999,-999.0,-999.0,91,-99.99,,,-99.99,,2013-02-27 21:30:00,
2013-02-27 16:40:00,-1.0,0.0,-100.00,North,-999,-999.0,-999.0,0,-99.99,,,-99.99,,2013-02-27 21:40:00,
2013-02-27 16:50:00,37.6,35.2,-100.00,North,-999,-999.0,-999.0,91,-99.99,,,-99.99,,2013-02-27 21:50:00,
2013-02-27 17:00:00,36.9,34.5,-100.00,North,-999,-999.0,-999.0,91,-99.99,,,-99.99,,2013-02-27 22:00:00,
2013-02-27 17:10:00,36.5,34.2,-100.00,North,-999,-999.0,-999.0,91,-99.99,,,-99.99,,2013-02-27 22:10:00,
2013-02-27 17:20:00,36.0,33.6,-100.00,North,-999,-999.0,-999.0,91,-99.99,,,-99.99,,2013-02-27 22:20:00,
2013-02-27 17:30:00,36.0,33.6,-100.00,North,-999,-999.0,-999.0,91,-99.99,,,-99.99,,2013-02-27 22:30:00,
2013-02-27 17:40:00,35.8,33.4,-100.00,North,-999,-999.0,-999.0,91,-99.99,,,-99.99,,2013-02-27 22:40:00,
2013-02-27 17:50:00,35.6,33.4,-100.00,North,-999,-999.0,-999.0,92,-99.99,,,-99.99,,2013-02-27 22:50:00,
2013-02-27 18:00:00,35.6,33.4,-100.00,North,-999,-999.0,-999.0,92,-99.99,,,-99.99,,2013-02-27 23:00:00,
2013-02-27 18:10:00,35.6,33.4,-100.00,North,-999,-999.0,-999.0,92,-99.99,,,-99.99,,2013-02-27 23:10:00,
2013-02-27 18:20:00,35.6,33.4,-100.00,North,-999,-999.0,-999.0,92,-99.99,,,-99.99,,2013-02-27 23:20:00,
2013-02-27 18:30:00,35.1,33.1,-100.00,North,-999,-999.0,-999.0,92,-99.99,,,-99.99,,2013-02-27 23:30:00,
2013-02-27 18:40:00,35.1,33.1,-100.00,North,-999,-999.0,-999.0,92,-99.99,,,-99.99,,2013-02-27 23:40:00,
2013-02-27 18:50:00,35.1,33.1,-100.00,North,-999,-999.0,-999.0,92,-99.99,,,-99.99,,2013-02-27 23:50:00,
2013-02-27 19:00:00,34.7,32.5,-100.00,North,-999,-999.0,-999.0,92,-99.99,,,-99.99,,2013-02-28 00:00:00,
2013-02-27 19:10:00,34.6,32.5,-100.00,North,-999,-999.0,-999.0,92,-99.99,,,-99.99,,2013-02-28 00:10:00,
2013-02-27 19:20:00,34.6,32.5,-100.00,North,-999,-999.0,-999.0,92,-99.99,,,-99.99,,2013-02-28 00:20:00,
2013-02-27 19:30:00,34.4,32.5,-100.00,North,-999,-999.0,-999.0,93,-99.99,,,-99.99,,2013-02-28 00:30:00,
2013-02-27 19:40:00,34.4,32.5,-100.00,North,-999,-999.0,-999.0,93,-99.99,,,-99.99,,2013-02-28 00:40:00,
2013-02-27 19:50:00,34.2,32.4,-100.00,North,-999,-999.0,-999.0,93,-99.99,,,-99.99,,2013-02-28 00:50:00,
2013-02-27 20:00:00,34.4,32.5,-100.00,North,-999,-999.0,-999.0,93,-99.99,,,-99.99,,2013-02-28 01:00:00,
2013-02-27 20:10:00,34.2,32.4,-100.00,North,-999,-999.0,-999.0,93,-99.99,,,-99.99,,2013-02-28 01:10:00,
2013-02-27 20:20:00,-1.0,0.0,-100.00,North,-999,-999.0,-999.0,0,-99.99,,,-99.99,,2013-02-28 01:20:00,
2013-02-27 20:30:00,34.2,32.4,-100.00,North,-999,-999.0,-999.0,93,-99.99,,,-99.99,,2013-02-28 01:30:00,
2013-02-27 20:40:00,34.2,32.4,-100.00,North,-999,-999.0,-999.0,93,-99.99,,,-99.99,,2013-02-28 01:40:00,
2013-02-27 20:50:00,34.2,32.4,-100.00,North,-999,-999.0,-999.0,93,-99.99,,,-99.99,,2013-02-28 01:50:00,
2013-02-27 21:00:00,34.2,32.4,-100.00,North,-999,-999.0,-999.0,93,-99.99,,,-99.99,,2013-02-28 02:00:00,
2013-02-27 21:10:00,34.2,32.4,-100.00,North,-999,-999.0,-999.0,93,-99.99,,,-99.99,,2013-02-28 02:10:00,
2013-02-27 21:20:00,34.0,32.2,-100.00,North,-999,-999.0,-999.0,93,-99.99,,,-99.99,,2013-02-28 02:20:00,
2013-02-27 21:30:00,34.0,32.2,-100.00,North,-999,-999.0,-999.0,93,-99.99,,,-99.99,,2013-02-28 02:30:00,
2013-02-27 21:40:00,34.0,32.2,-100.00,North,-999,-999.0,-999.0,93,-99.99,,,-99.99,,2013-02-28 02:40:00,
2013-02-27 21:50:00,34.0,32.2,-100.00,North,-999,-999.0,-999.0,93,-99.99,,,-99.99,,2013-02-28 02:50:00,
2013-02-27 22:00:00,33.8,32.0,-100.00,North,-999,-999.0,-999.0,93,-99.99,,,-99.99,,2013-02-28 03:00:00,
2013-02-27 22:10:00,33.7,31.8,-100.00,North,-999,-999.0,-999.0,93,-99.99,,,-99.99,,2013-02-28 03:10:00,
2013-02-27 22:20:00,33.5,31.6,-100.00,North,-999,-999.0,-999.0,93,-99.99,,,-99.99,,2013-02-28 03:20:00,
2013-02-27 22:30:00,33.3,31.5,-100.00,North,-999,-999.0,-999.0,93,-99.99,,,-99.99,,2013-02-28 03:30:00,
2013-02-27 22:40:00,33.5,31.6,-100.00,North,-999,-999.0,-999.0,93,-99.99,,,-99.99,,2013-02-28 03:40:00,
2013-02-27 22:50:00,33.3,31.5,-100.00,North,-999,-999.0,-999.0,93,-99.99,,,-99.99,,2013-02-28 03:50:00,
2013-02-27 23:00:00,33.3,31.5,-100.00,North,-999,-999.0,-999.0,93,-99.99,,,-99.99,,2013-02-28 04:00:00,
2013-02-27 23:10:00,32.9,31.1,-100.00,North,-999,-999.0,-999.0,93,-99.99,,,-99.99,,2013-02-28 04:10:00,
2013-02-27 23:20:00,33.1,31.3,-100.00,North,-999,-999.0,-999.0,93,-99.99,,,-99.99,,2013-02-28 04:20:00,
2013-02-27 23:30:00,32.9,30.9,-100.00,North,-999,-999.0,-999.0,92,-99.99,,,-99.99,,2013-02-28 04:30:00,
2013-02-27 23:40:00,32.9,30.9,-100.00,North,-999,-999.0,-999.0,92,-99.99,,,-99.99,,2013-02-28 04:40:00,
2013-02-27 23:50:00,32.8,30.7,-100.00,North,-999,-999.0,-999.0,92,-99.99,,,-99.99,,2013-02-28 04:50:00,